Time;durP1;ratioP1;P1;durP2;ratioP2;P2;SDS_P1;SDS_P2;PMS_P1;PMS_P2;Temp;Humidity;BMP_temperature;BMP_pressure;BME280_temperature;BME280_humidity;BME280_pressure;Samples;Min_cycle;Max_cycle;Signal;HPM_P1;HPM_P2
2023/07/21 00:01:09;;;;;;;4.10;3.70;;;;;;;17.77;95.46;99083.13;106042;1254;62004;-74
2023/07/21 00:03:38;;;;;;;4.80;3.60;;;;;;;17.78;95.40;99083.03;106093;1254;60487;-73
2023/07/21 00:06:08;;;;;;;5.60;3.70;;;;;;;17.75;94.91;99088.71;107194;1256;73871;-74
2023/07/21 00:08:37;;;;;;;5.80;4.20;;;;;;;17.69;94.33;99093.30;108056;1256;69028;-74
2023/07/21 00:11:04;;;;;;;4.10;3.30;;;;;;;17.62;94.24;99092.20;108185;1256;71382;-76
2023/07/21 00:13:35;;;;;;;6.70;3.80;;;;;;;17.61;94.92;99094.17;105991;1253;60450;-76
2023/07/21 00:16:05;;;;;;;5.80;4.00;;;;;;;17.62;94.61;99093.40;105916;1257;60428;-75
2023/07/21 00:18:32;;;;;;;4.40;3.30;;;;;;;17.64;94.65;99094.52;106082;1256;73773;-78
2023/07/21 00:21:00;;;;;;;4.30;3.20;;;;;;;17.65;94.49;99096.25;106001;1253;70020;-78
2023/07/21 00:23:27;;;;;;;4.90;3.70;;;;;;;17.64;94.54;99100.05;106187;1253;72758;-78
2023/07/21 00:25:54;;;;;;;4.40;3.60;;;;;;;17.67;94.89;99096.10;106011;1254;62293;-75
2023/07/21 00:28:21;;;;;;;3.70;3.40;;;;;;;17.74;94.65;99098.34;106048;1254;60489;-75
2023/07/21 00:30:48;;;;;;;3.90;3.50;;;;;;;17.78;93.89;99099.48;105837;1258;73866;-77
2023/07/21 00:33:15;;;;;;;4.30;3.40;;;;;;;17.77;93.59;99091.97;106915;1253;70539;-76
2023/07/21 00:35:42;;;;;;;4.60;3.60;;;;;;;17.75;92.96;99095.15;109209;1253;71391;-73
2023/07/21 00:38:10;;;;;;;6.20;3.70;;;;;;;17.71;93.12;99091.07;107919;1253;60374;-77
2023/07/21 00:40:37;;;;;;;5.50;3.70;;;;;;;17.65;93.20;99091.48;107599;1253;59265;-77
2023/07/21 00:43:04;;;;;;;4.20;3.40;;;;;;;17.66;93.05;99095.85;106036;1253;73735;-76
2023/07/21 00:45:34;;;;;;;5.30;3.40;;;;;;;17.68;92.93;99092.56;106131;1254;70120;-76
2023/07/21 00:48:03;;;;;;;4.30;3.50;;;;;;;17.64;92.28;99094.04;106108;1253;72559;-77
2023/07/21 00:50:30;;;;;;;4.90;4.40;;;;;;;17.60;92.62;99089.35;106037;1253;60602;-76
2023/07/21 00:52:58;;;;;;;7.70;3.90;;;;;;;17.52;92.73;99086.72;105895;1258;60291;-76
2023/07/21 00:55:25;;;;;;;4.30;3.60;;;;;;;17.47;92.60;99088.29;106167;1253;73940;-77
2023/07/21 00:57:52;;;;;;;5.20;4.10;;;;;;;17.43;92.57;99085.44;105880;1257;68790;-73
2023/07/21 01:00:19;;;;;;;5.10;3.70;;;;;;;17.37;92.44;99088.55;105931;1254;72973;-73
2023/07/21 01:02:49;;;;;;;5.10;3.90;;;;;;;17.31;92.33;99089.67;106101;1253;61805;-72
2023/07/21 01:05:17;;;;;;;5.60;4.10;;;;;;;17.29;92.48;99087.75;106458;1252;60524;-74
2023/07/21 01:07:44;;;;;;;3.80;3.40;;;;;;;17.24;92.31;99080.80;107448;1253;73683;-75
2023/07/21 01:10:11;;;;;;;4.80;4.30;;;;;;;17.21;92.58;99087.05;107821;1253;68819;-76
2023/07/21 01:12:39;;;;;;;5.30;3.60;;;;;;;17.13;92.56;99091.24;106153;1256;71339;-76
2023/07/21 01:15:06;;;;;;;5.40;3.60;;;;;;;17.08;92.81;99092.95;105955;1253;61878;-75
2023/07/21 01:17:33;;;;;;;6.30;3.90;;;;;;;17.07;93.09;99094.70;106207;1256;60284;-76
2023/07/21 01:20:04;;;;;;;4.90;4.10;;;;;;;17.06;93.13;99094.34;105864;1259;73918;-78
2023/07/21 01:22:36;;;;;;;5.20;3.90;;;;;;;16.99;93.25;99095.79;105804;1253;70258;-77
2023/07/21 01:25:11;;;;;;;5.50;3.60;;;;;;;16.93;93.22;99100.66;106029;1253;72549;-77
2023/07/21 01:27:39;;;;;;;4.20;3.80;;;;;;;16.92;93.08;99101.81;106088;1253;60717;-76
2023/07/21 01:30:09;;;;;;;5.40;3.80;;;;;;;16.92;93.22;99106.94;105816;1252;60346;-76
2023/07/21 01:32:39;;;;;;;4.80;3.90;;;;;;;16.94;93.56;99110.84;106115;1256;73770;-76
2023/07/21 01:35:11;;;;;;;8.60;3.90;;;;;;;16.92;93.22;99113.79;106191;1256;68870;-76
2023/07/21 01:37:39;;;;;;;4.30;3.50;;;;;;;16.88;92.87;99115.93;108429;1252;71180;-73
2023/07/21 01:40:11;;;;;;;4.50;3.90;;;;;;;16.88;92.86;99118.99;106704;1253;60376;-74
2023/07/21 01:42:40;;;;;;;5.30;4.20;;;;;;;16.90;93.14;99125.33;106196;1251;60403;-75
2023/07/21 01:45:07;;;;;;;4.30;3.80;;;;;;;16.87;93.24;99126.43;106275;1251;72604;-76
2023/07/21 01:47:34;;;;;;;4.30;3.20;;;;;;;16.85;93.17;99127.42;106164;1251;70156;-78
2023/07/21 01:50:01;;;;;;;4.10;3.00;;;;;;;16.85;93.07;99127.65;105983;1252;72576;-77
2023/07/21 01:52:31;;;;;;;3.70;3.40;;;;;;;16.85;93.04;99128.23;106023;1253;60561;-78
2023/07/21 01:55:01;;;;;;;4.40;3.50;;;;;;;16.78;93.04;99126.34;106131;1255;60339;-78
2023/07/21 01:57:31;;;;;;;5.10;3.30;;;;;;;16.74;93.19;99133.41;106020;1256;73893;-75
2023/07/21 01:59:59;;;;;;;3.60;2.80;;;;;;;16.78;93.16;99132.84;105998;1251;69278;-74
2023/07/21 02:02:27;;;;;;;5.60;3.80;;;;;;;16.77;92.51;99139.98;106507;1251;74126;-81
2023/07/21 02:04:53;;;;;;;4.20;3.60;;;;;;;16.68;92.60;99140.96;106427;1253;60418;-77
2023/07/21 02:07:22;;;;;;;3.80;3.50;;;;;;;16.60;92.59;99147.42;106380;1251;60326;-76
2023/07/21 02:09:52;;;;;;;4.30;3.50;;;;;;;16.59;92.64;99154.35;107597;1251;73669;-73
2023/07/21 02:12:20;;;;;;;4.30;3.90;;;;;;;16.60;92.61;99151.88;107911;1253;70425;-77
2023/07/21 02:14:55;;;;;;;4.90;3.70;;;;;;;16.54;92.96;99155.07;105971;1257;71141;-78
2023/07/21 02:17:22;;;;;;;4.30;3.80;;;;;;;16.50;93.17;99160.55;105908;1253;61747;-77
2023/07/21 02:19:48;;;;;;;4.10;3.70;;;;;;;16.54;93.30;99162.79;106081;1252;60347;-77
2023/07/21 02:22:15;;;;;;;4.90;3.80;;;;;;;16.54;93.05;99165.36;106109;1251;73806;-77
2023/07/21 02:24:42;;;;;;;4.60;4.20;;;;;;;16.51;93.41;99168.87;106199;1252;69148;-76
2023/07/21 02:27:10;;;;;;;4.10;3.70;;;;;;;16.50;93.41;99171.48;105888;1251;72602;-79
2023/07/21 02:29:37;;;;;;;5.10;3.70;;;;;;;16.54;93.12;99173.30;105915;1253;61902;-79
2023/07/21 02:32:05;;;;;;;5.00;3.80;;;;;;;16.55;93.38;99174.73;106034;1256;61372;-77
2023/07/21 02:34:32;;;;;;;7.30;4.60;;;;;;;16.52;93.37;99173.16;105932;1251;73785;-76
2023/07/21 02:36:59;;;;;;;8.20;4.20;;;;;;;16.49;93.74;99175.45;106227;1251;70351;-78
2023/07/21 02:39:25;;;;;;;6.70;4.20;;;;;;;16.53;93.63;99178.26;106769;1251;72671;-74
2023/07/21 02:41:52;;;;;;;7.10;5.20;;;;;;;16.57;93.66;99178.17;108201;1251;60499;-72
2023/07/21 02:44:19;;;;;;;7.70;4.80;;;;;;;16.59;93.64;99182.86;106296;1251;60586;-73
2023/07/21 02:46:47;;;;;;;6.40;4.90;;;;;;;16.57;93.84;99182.61;106267;1251;73731;-75
2023/07/21 02:49:15;;;;;;;5.90;4.40;;;;;;;16.60;93.86;99186.81;106150;1253;70181;-76
2023/07/21 02:51:41;;;;;;;5.60;4.90;;;;;;;16.66;93.77;99192.08;105998;1254;72708;-74
2023/07/21 02:54:08;;;;;;;6.50;5.00;;;;;;;16.66;94.06;99191.66;106518;1251;60443;-74
2023/07/21 02:56:35;;;;;;;6.10;5.40;;;;;;;16.65;94.28;99194.96;107659;1257;60429;-75
2023/07/21 02:59:09;;;;;;;10.00;5.40;;;;;;;16.70;93.98;99196.86;107770;1251;72393;-75
2023/07/21 03:01:36;;;;;;;6.70;5.50;;;;;;;16.76;93.82;99196.72;107564;1251;69035;-75
2023/07/21 03:04:03;;;;;;;7.40;5.90;;;;;;;16.78;93.82;99194.56;106790;1251;71486;-76
2023/07/21 03:06:31;;;;;;;6.00;5.20;;;;;;;16.77;93.82;99191.02;107373;1253;62104;-79
2023/07/21 03:08:58;;;;;;;6.70;6.00;;;;;;;16.79;93.51;99192.02;108510;1251;202509;-77
2023/07/21 03:13:25;;;;;;;6.50;5.90;;;;;;;16.82;93.19;99196.01;104952;1293;600242;-77
2023/07/21 03:15:52;;;;;;;9.80;5.50;;;;;;;16.74;93.23;99201.05;105119;1269;61812;-78
2023/07/21 03:18:26;;;;;;;10.70;5.50;;;;;;;16.76;93.50;99198.80;105541;1269;59836;-75
2023/07/21 03:21:10;;;;;;;9.50;6.70;;;;;;;16.80;93.78;99201.30;105167;1273;71469;-75
2023/07/21 03:23:38;;;;;;;6.70;6.00;;;;;;;16.85;94.13;99207.53;107089;1269;69436;-75
2023/07/21 03:26:05;;;;;;;7.70;6.30;;;;;;;16.92;93.76;99212.48;108051;1265;175079;-74
2023/07/21 03:28:38;;;;;;;5.90;5.30;;;;;;;16.99;93.73;99216.21;108416;1266;58798;-74
2023/07/21 03:31:05;;;;;;;11.50;6.60;;;;;;;17.04;93.84;99217.95;108479;1265;59294;-75
2023/07/21 03:33:40;;;;;;;8.30;6.20;;;;;;;17.08;93.53;99222.76;108511;1265;71312;-77
2023/07/21 03:36:14;;;;;;;6.40;5.80;;;;;;;17.19;92.86;99226.63;108433;1265;68763;-75
2023/07/21 03:38:41;;;;;;;7.30;6.50;;;;;;;17.26;92.36;99231.02;107946;1265;71417;-77
2023/07/21 03:41:09;;;;;;;9.20;6.60;;;;;;;17.26;91.98;99228.83;108185;1266;59139;-77
2023/07/21 03:43:37;;;;;;;6.60;6.00;;;;;;;17.23;91.85;99233.98;108532;1266;61000;-75
2023/07/21 03:46:06;;;;;;;7.80;5.60;;;;;;;17.22;91.38;99234.48;108735;1259;71741;-77
2023/07/21 03:48:54;;;;;;;6.30;5.70;;;;;;;17.22;91.60;99233.99;108512;1260;69201;-76
2023/07/21 03:51:22;;;;;;;8.10;7.30;;;;;;;17.24;92.00;99232.40;108664;1259;72099;-77
2023/07/21 03:53:49;;;;;;;7.10;6.10;;;;;;;17.27;92.41;99234.44;108752;1259;60570;-76
2023/07/21 03:56:18;;;;;;;7.50;5.90;;;;;;;17.37;91.69;99232.71;108669;1258;58865;-80
2023/07/21 03:58:46;;;;;;;7.30;6.60;;;;;;;17.42;91.17;99233.27;108806;1259;71767;-80
2023/07/21 04:01:15;;;;;;;8.80;6.70;;;;;;;17.43;91.16;99238.33;108564;1259;68952;-79
2023/07/21 04:03:43;;;;;;;7.00;6.30;;;;;;;17.45;90.88;99246.11;108703;1259;71457;-78
2023/07/21 04:06:14;;;;;;;7.30;6.30;;;;;;;17.51;89.76;99247.34;105861;1260;61552;-78
2023/07/21 04:08:42;;;;;;;6.90;6.30;;;;;;;17.48;89.52;99244.23;107278;1259;59809;-78
2023/07/21 04:11:09;;;;;;;6.90;6.30;;;;;;;17.44;89.94;99245.44;108079;1259;71786;-79
2023/07/21 04:13:37;;;;;;;6.80;6.10;;;;;;;17.48;89.98;99253.44;107839;1262;68788;-81
2023/07/21 04:16:05;;;;;;;10.20;7.60;;;;;;;17.52;90.00;99258.27;105804;1265;71608;-79
2023/07/21 04:18:33;;;;;;;8.50;6.10;;;;;;;17.55;90.20;99265.58;105590;1264;60406;-79
2023/07/21 04:21:02;;;;;;;6.90;6.20;;;;;;;17.63;89.40;99275.02;105639;1262;59594;-81
2023/07/21 04:23:29;;;;;;;8.30;7.00;;;;;;;17.66;89.17;99274.84;105549;1260;72866;-78
2023/07/21 04:25:57;;;;;;;9.80;7.30;;;;;;;17.66;89.25;99277.69;105829;1263;69486;-75
2023/07/21 04:28:24;;;;;;;7.30;6.60;;;;;;;17.66;88.85;99279.91;106031;1261;72660;-85
2023/07/21 04:30:53;;;;;;;6.40;5.60;;;;;;;17.71;88.15;99280.80;106416;1259;63956;-86
2023/07/21 04:33:21;;;;;;;7.00;5.70;;;;;;;17.74;87.77;99290.11;106133;1259;59647;-83
2023/07/21 04:35:51;;;;;;;7.90;6.10;;;;;;;17.65;87.48;99298.61;106073;1259;73602;-83
2023/07/21 04:38:24;;;;;;;6.90;5.60;;;;;;;17.55;87.68;99300.04;106651;1259;68367;-85
2023/07/21 04:40:58;;;;;;;6.20;5.60;;;;;;;17.54;87.55;99298.60;106958;1259;71461;-84
2023/07/21 04:43:25;;;;;;;6.70;6.00;;;;;;;17.53;87.17;99297.41;109011;1259;60880;-84
2023/07/21 04:45:54;;;;;;;6.30;5.20;;;;;;;17.48;87.28;99297.73;107215;1258;59627;-86
2023/07/21 04:48:29;;;;;;;8.40;5.50;;;;;;;17.53;86.86;99296.92;106312;1259;71511;-81
2023/07/21 04:50:58;;;;;;;7.10;5.10;;;;;;;17.50;86.27;99295.02;106145;1261;69226;-87
2023/07/21 04:53:25;;;;;;;6.10;5.50;;;;;;;17.37;86.29;99295.41;106096;1260;72644;-85
2023/07/21 04:55:57;;;;;;;5.70;5.20;;;;;;;17.27;86.82;99297.09;106260;1258;60516;-83
2023/07/21 04:58:26;;;;;;;6.60;5.90;;;;;;;17.26;86.72;99298.09;105985;1257;59923;-81
2023/07/21 05:00:54;;;;;;;8.60;5.20;;;;;;;17.28;87.39;99293.77;106177;1256;72159;-84
2023/07/21 05:03:22;;;;;;;8.00;5.20;;;;;;;17.31;87.53;99297.09;107946;1259;68712;-81
2023/07/21 05:05:50;;;;;;;6.10;4.80;;;;;;;17.34;87.10;99300.68;107334;1254;72724;-80
2023/07/21 05:08:20;;;;;;;8.40;5.30;;;;;;;17.43;86.82;99308.39;107283;1259;60689;-79
2023/07/21 05:10:48;;;;;;;9.90;5.70;;;;;;;17.50;86.67;99311.17;107888;1259;59505;-79
2023/07/21 05:13:17;;;;;;;6.20;5.60;;;;;;;17.56;86.96;99312.38;109160;1254;73111;-79
2023/07/21 05:16:00;;;;;;;8.30;5.20;;;;;;;17.73;86.66;99320.70;107051;1262;68925;-77
2023/07/21 05:18:41;;;;;;;11.70;6.30;;;;;;;17.83;85.78;99322.36;107162;1258;71990;-79
2023/07/21 05:21:42;;;;;;;13.20;8.90;;;;;;;17.85;85.78;99325.87;106452;1258;60402;-79
2023/07/21 05:24:28;;;;;;;8.10;6.30;;;;;;;17.90;85.83;99323.45;105822;1254;59617;-81
2023/07/21 05:26:57;;;;;;;22.00;14.80;;;;;;;17.94;85.99;99329.53;105861;1260;71647;-80
2023/07/21 05:29:38;;;;;;;22.30;14.20;;;;;;;17.93;85.69;99332.59;105809;1259;68730;-79
2023/07/21 05:32:06;;;;;;;9.40;6.70;;;;;;;17.99;85.46;99332.70;105885;1258;71470;-78
2023/07/21 05:34:34;;;;;;;12.50;6.00;;;;;;;18.02;84.95;99337.23;105736;1260;59663;-77
2023/07/21 05:37:05;;;;;;;6.60;5.40;;;;;;;18.00;85.33;99339.46;105859;1259;59527;-74
2023/07/21 05:39:33;;;;;;;7.20;5.50;;;;;;;18.09;85.40;99336.84;106803;1259;73374;-75
2023/07/21 05:42:01;;;;;;;7.30;6.30;;;;;;;18.20;84.82;99344.35;107223;1262;68745;-76
2023/07/21 05:44:33;;;;;;;7.70;5.20;;;;;;;18.20;83.73;99340.59;106553;1260;74776;-74
2023/07/21 05:47:01;;;;;;;6.30;5.60;;;;;;;18.14;83.13;99333.52;105381;1260;59613;-75
2023/07/21 05:49:29;;;;;;;8.70;5.90;;;;;;;18.14;83.99;99337.95;105604;1259;59531;-75
2023/07/21 05:51:58;;;;;;;10.20;6.70;;;;;;;18.18;83.68;99335.24;106110;1260;70882;-73
2023/07/21 05:54:33;;;;;;;5.50;4.80;;;;;;;18.19;83.53;99333.62;105426;1261;69092;-74
2023/07/21 05:57:01;;;;;;;8.10;6.40;;;;;;;18.26;83.51;99335.59;105282;1255;71359;-75
2023/07/21 05:59:36;;;;;;;7.00;5.00;;;;;;;18.37;83.89;99338.21;105686;1260;59600;-76
2023/07/21 06:02:04;;;;;;;9.20;6.40;;;;;;;18.44;83.46;99340.39;106028;1259;59357;-74
2023/07/21 06:04:35;;;;;;;6.30;5.60;;;;;;;18.45;82.64;99341.98;105326;1253;74194;-74
2023/07/21 06:07:32;;;;;;;5.70;5.10;;;;;;;18.43;81.79;99351.13;104959;1263;70373;-75
2023/07/21 06:10:17;;;;;;;6.70;5.20;;;;;;;18.40;81.94;99356.28;106952;1257;71983;-73
2023/07/21 06:13:08;;;;;;;8.90;5.60;;;;;;;18.33;81.89;99358.67;106704;1258;59580;-73
2023/07/21 06:15:59;;;;;;;6.00;5.30;;;;;;;18.28;82.17;99358.81;105579;1259;59727;-75
2023/07/21 06:18:38;;;;;;;6.20;4.60;;;;;;;18.41;82.74;99359.59;105421;1259;71772;-75
2023/07/21 06:21:06;;;;;;;8.50;5.20;;;;;;;18.55;82.57;99361.08;105382;1261;68725;-75
2023/07/21 06:23:33;;;;;;;7.30;5.30;;;;;;;18.60;81.28;99361.20;105433;1258;72458;-74
2023/07/21 06:26:01;;;;;;;6.40;5.20;;;;;;;18.60;80.44;99368.84;105272;1260;59605;-76
2023/07/21 06:28:29;;;;;;;7.60;4.80;;;;;;;18.58;80.37;99366.05;105279;1254;59726;-75
2023/07/21 06:30:57;;;;;;;6.50;5.60;;;;;;;18.62;80.28;99370.98;105543;1252;71987;-75
2023/07/21 06:33:53;;;;;;;6.10;5.50;;;;;;;18.64;79.86;99372.88;105051;1265;69188;-74
2023/07/21 06:36:41;;;;;;;6.30;5.70;;;;;;;18.58;79.58;99373.25;105325;1258;72696;-75
2023/07/21 06:39:32;;;;;;;6.00;5.20;;;;;;;18.49;79.36;99369.84;107036;1254;60791;-74
2023/07/21 06:42:15;;;;;;;7.00;5.40;;;;;;;18.49;79.75;99371.15;107340;1259;59543;-75
2023/07/21 06:45:01;;;;;;;7.30;5.50;;;;;;;18.47;79.32;99378.45;106405;1258;73102;-75
2023/07/21 06:47:44;;;;;;;6.90;5.40;;;;;;;18.39;80.05;99382.24;105703;1267;69026;-75
2023/07/21 06:50:19;;;;;;;5.50;4.70;;;;;;;18.41;80.28;99378.98;105730;1262;72392;-75
2023/07/21 06:52:51;;;;;;;5.10;4.60;;;;;;;18.57;80.31;99380.33;105953;1257;60478;-76
2023/07/21 06:55:21;;;;;;;10.30;6.80;;;;;;;18.75;79.86;99384.80;105555;1259;60008;-76
2023/07/21 06:57:49;;;;;;;8.30;4.80;;;;;;;18.86;79.71;99388.75;105502;1261;72472;-76
2023/07/21 07:00:18;;;;;;;5.80;5.20;;;;;;;18.96;79.82;99387.38;105468;1260;70146;-76
2023/07/21 07:02:49;;;;;;;5.40;4.80;;;;;;;19.09;79.47;99388.54;105598;1262;71157;-75
2023/07/21 07:05:17;;;;;;;6.20;4.50;;;;;;;19.30;78.91;99390.64;105894;1257;60459;-75
2023/07/21 07:07:46;;;;;;;7.10;4.40;;;;;;;19.48;78.09;99392.14;105648;1260;59706;-74
2023/07/21 07:10:13;;;;;;;6.30;4.50;;;;;;;19.58;76.90;99394.36;106658;1258;73201;-75
2023/07/21 07:12:41;;;;;;;5.00;4.50;;;;;;;19.65;76.62;99386.91;107870;1253;69199;-75
2023/07/21 07:15:11;;;;;;;6.10;4.20;;;;;;;19.74;76.32;99388.38;106802;1257;72795;-75
2023/07/21 07:17:38;;;;;;;5.50;4.30;;;;;;;19.84;76.03;99387.31;105691;1261;59722;-75
2023/07/21 07:20:09;;;;;;;5.60;4.50;;;;;;;19.99;76.57;99383.34;105458;1258;61899;-75
2023/07/21 07:22:37;;;;;;;4.20;3.80;;;;;;;20.24;75.67;99386.00;105577;1260;72252;-75
2023/07/21 07:25:06;;;;;;;5.30;4.80;;;;;;;20.39;73.48;99385.59;105615;1258;69590;-75
2023/07/21 07:27:34;;;;;;;5.50;4.80;;;;;;;20.38;73.29;99386.80;105427;1261;74173;-74
2023/07/21 07:30:02;;;;;;;8.80;5.20;;;;;;;20.32;72.44;99388.29;105384;1259;60593;-76
2023/07/21 07:32:29;;;;;;;5.70;4.70;;;;;;;20.21;72.60;99387.11;105489;1258;60503;-76
2023/07/21 07:34:58;;;;;;;6.30;4.80;;;;;;;20.13;72.59;99389.44;105460;1259;76719;-75
2023/07/21 07:37:26;;;;;;;4.70;4.20;;;;;;;20.05;72.78;99389.67;105462;1261;68717;-77
2023/07/21 07:39:55;;;;;;;5.90;4.00;;;;;;;20.08;73.09;99389.30;106324;1257;70293;-80
2023/07/21 07:42:23;;;;;;;7.30;3.90;;;;;;;20.25;72.80;99392.21;107241;1259;60397;-81
2023/07/21 07:44:55;;;;;;;4.90;3.70;;;;;;;20.34;71.09;99389.58;108083;1253;58510;-77
2023/07/21 07:47:22;;;;;;;5.70;3.30;;;;;;;20.33;70.20;99390.48;106622;1255;72587;-81
2023/07/21 07:49:51;;;;;;;4.00;3.20;;;;;;;20.32;70.06;99391.80;105973;1260;68971;-78
2023/07/21 07:52:18;;;;;;;5.00;4.50;;;;;;;20.34;70.14;99395.79;105549;1260;74843;-79
2023/07/21 07:54:46;;;;;;;3.60;3.30;;;;;;;20.38;70.60;99399.64;105388;1253;60575;-78
2023/07/21 07:57:14;;;;;;;4.70;3.50;;;;;;;20.50;69.96;99404.45;105912;1254;60565;-78
2023/07/21 07:59:42;;;;;;;5.10;3.40;;;;;;;20.59;68.13;99405.14;106073;1254;74291;-79
2023/07/21 08:02:09;;;;;;;6.20;3.20;;;;;;;20.57;67.55;99404.90;105426;1261;69648;-80
2023/07/21 08:04:37;;;;;;;6.10;3.50;;;;;;;20.53;68.30;99405.38;105576;1253;72627;-79
2023/07/21 08:07:05;;;;;;;6.20;4.30;;;;;;;20.58;68.48;99408.35;105803;1253;60754;-79
2023/07/21 08:09:33;;;;;;;4.20;3.40;;;;;;;20.68;68.27;99407.73;105415;1255;60467;-80
2023/07/21 08:12:00;;;;;;;3.50;3.20;;;;;;;20.78;67.40;99413.20;106113;1254;75878;-80
2023/07/21 08:14:28;;;;;;;3.30;2.90;;;;;;;20.88;66.00;99416.38;107847;1253;70505;-79
2023/07/21 08:16:55;;;;;;;3.30;3.00;;;;;;;20.94;65.83;99414.28;107477;1257;72727;-80
2023/07/21 08:19:23;;;;;;;6.70;3.30;;;;;;;21.04;65.46;99414.38;106070;1255;60473;-79
2023/07/21 08:21:50;;;;;;;4.10;2.70;;;;;;;21.12;65.21;99415.52;106010;1259;60339;-80
2023/07/21 08:24:18;;;;;;;3.80;2.70;;;;;;;21.16;65.52;99415.02;106302;1254;72641;-79
2023/07/21 08:26:45;;;;;;;3.30;2.50;;;;;;;21.26;65.89;99411.51;105782;1257;70139;-78
2023/07/21 08:29:13;;;;;;;3.40;2.70;;;;;;;21.39;63.19;99408.73;105605;1260;72843;-76
2023/07/21 08:31:40;;;;;;;3.30;2.60;;;;;;;21.47;62.89;99410.07;105794;1254;61087;-78
2023/07/21 08:34:10;;;;;;;4.60;2.70;;;;;;;21.51;62.54;99412.02;106021;1256;60361;-79
2023/07/21 08:36:37;;;;;;;3.00;2.70;;;;;;;21.56;62.84;99409.98;106081;1260;73892;-78
2023/07/21 08:39:20;;;;;;;2.40;2.20;;;;;;;21.65;62.40;99408.28;105990;1257;69729;-75
2023/07/21 08:41:50;;;;;;;3.10;2.30;;;;;;;21.73;60.61;99409.89;106810;1254;71361;-77
2023/07/21 08:44:19;;;;;;;3.20;2.50;;;;;;;21.75;60.52;99410.67;107339;1254;60461;-75
2023/07/21 08:46:47;;;;;;;3.80;2.50;;;;;;;21.78;60.92;99413.25;107320;1251;58752;-77
2023/07/21 08:49:18;;;;;;;3.90;2.20;;;;;;;21.88;61.29;99414.74;105574;1257;73753;-77
2023/07/21 08:51:46;;;;;;;2.60;2.40;;;;;;;22.04;61.37;99411.05;105254;1254;70767;-75
2023/07/21 08:54:14;;;;;;;4.70;2.10;;;;;;;22.24;60.03;99419.90;105350;1267;71130;-76
2023/07/21 08:56:41;;;;;;;4.20;2.90;;;;;;;22.34;59.30;99417.41;105661;1253;60417;-74
2023/07/21 08:59:09;;;;;;;5.10;2.60;;;;;;;22.40;59.77;99416.90;105672;1257;60452;-74
2023/07/21 09:01:38;;;;;;;3.50;2.40;;;;;;;22.48;59.58;99421.13;106450;1257;75939;-75
2023/07/21 09:04:22;;;;;;;3.40;2.90;;;;;;;22.58;59.42;99421.23;106613;1254;68704;-75
2023/07/21 09:06:54;;;;;;;6.80;2.50;;;;;;;22.75;58.87;99421.34;106236;1251;72445;-76
2023/07/21 09:09:23;;;;;;;3.40;2.20;;;;;;;22.96;58.69;99417.52;105866;1256;60495;-74
2023/07/21 09:12:05;;;;;;;3.50;2.40;;;;;;;23.17;56.81;99415.49;106125;1257;60319;-72
2023/07/21 09:14:40;;;;;;;2.80;2.00;;;;;;;23.31;56.66;99417.66;106499;1257;72934;-73
2023/07/21 09:17:09;;;;;;;2.40;2.20;;;;;;;23.47;56.59;99421.73;106215;1256;67856;-76
2023/07/21 09:19:38;;;;;;;3.00;2.60;;;;;;;23.63;56.91;99415.56;105381;1254;72035;-75
2023/07/21 09:22:06;;;;;;;3.10;2.40;;;;;;;23.79;56.47;99417.17;106184;1254;60541;-74
2023/07/21 09:24:34;;;;;;;3.10;2.70;;;;;;;23.88;55.69;99418.92;105677;1255;60541;-74
2023/07/21 09:27:16;;;;;;;2.10;1.90;;;;;;;23.94;54.36;99418.51;105579;1252;72667;-76
2023/07/21 09:29:43;;;;;;;2.40;2.20;;;;;;;24.06;54.10;99419.70;105909;1254;70331;-75
2023/07/21 09:32:11;;;;;;;3.50;2.60;;;;;;;24.21;54.75;99415.47;105402;1254;73106;-76
2023/07/21 09:34:59;;;;;;;2.30;2.10;;;;;;;24.52;54.27;99420.69;105597;1257;60516;-73
2023/07/21 09:37:30;;;;;;;2.60;2.00;;;;;;;24.95;54.23;99421.47;105734;1256;60605;-73
2023/07/21 09:40:05;;;;;;;1.80;1.70;;;;;;;25.47;53.63;99416.63;105589;1257;72626;-74
2023/07/21 09:42:32;;;;;;;2.30;2.10;;;;;;;26.17;52.33;99420.20;106429;1258;68702;-74
2023/07/21 09:45:00;;;;;;;3.10;2.40;;;;;;;26.83;51.03;99423.32;107020;1257;73426;-74
2023/07/21 09:47:27;;;;;;;2.70;2.40;;;;;;;27.49;48.76;99415.17;106329;1253;60533;-74
2023/07/21 09:49:57;;;;;;;2.90;2.50;;;;;;;27.92;46.03;99414.35;106628;1255;60508;-74
2023/07/21 09:52:25;;;;;;;13.50;5.00;;;;;;;28.24;46.13;99420.80;106191;1254;75094;-77
2023/07/21 09:55:13;;;;;;;2.40;2.20;;;;;;;28.40;44.91;99420.64;107056;1255;69215;-75
2023/07/21 09:57:45;;;;;;;3.00;2.10;;;;;;;28.40;45.25;99417.95;105492;1258;71184;-73
2023/07/21 10:00:14;;;;;;;3.40;2.20;;;;;;;28.56;45.14;99418.69;105523;1258;60883;-72
2023/07/21 10:02:45;;;;;;;2.10;2.00;;;;;;;28.81;45.16;99418.59;105754;1252;60436;-73
2023/07/21 10:05:13;;;;;;;2.50;2.30;;;;;;;28.98;45.25;99429.38;105594;1254;73839;-76
2023/07/21 10:07:43;;;;;;;2.50;2.10;;;;;;;28.99;44.31;99433.52;105716;1254;70357;-74
2023/07/21 10:10:11;;;;;;;4.60;2.80;;;;;;;29.07;44.21;99435.57;105711;1257;72630;-73
2023/07/21 10:12:46;;;;;;;2.80;2.10;;;;;;;29.13;42.94;99437.14;106420;1256;60476;-76
2023/07/21 10:15:21;;;;;;;3.30;3.00;;;;;;;29.16;42.82;99436.98;107407;1254;60420;-76
2023/07/21 10:17:56;;;;;;;3.30;2.10;;;;;;;29.16;41.77;99440.21;106098;1254;73091;-75
2023/07/21 10:20:44;;;;;;;2.30;2.10;;;;;;;29.14;42.58;99437.40;105881;1256;68996;-75
2023/07/21 10:23:13;;;;;;;2.40;2.20;;;;;;;29.24;42.29;99441.19;105804;1253;72169;-74
2023/07/21 10:25:57;;;;;;;2.20;2.00;;;;;;;29.12;42.90;99440.48;106642;1253;60450;-73
2023/07/21 10:28:38;;;;;;;2.30;1.90;;;;;;;29.06;42.71;99444.56;106776;1256;60367;-75
2023/07/21 10:31:24;;;;;;;2.90;1.90;;;;;;;29.25;42.50;99445.16;106488;1257;73710;-74
2023/07/21 10:34:05;;;;;;;2.00;1.80;;;;;;;29.46;43.06;99445.56;105643;1252;69247;-74
2023/07/21 10:36:49;;;;;;;2.20;1.70;;;;;;;29.71;43.11;99444.83;105585;1254;72747;-78
2023/07/21 10:39:21;;;;;;;2.00;1.90;;;;;;;29.94;41.40;99451.87;105842;1254;60545;-77
2023/07/21 10:41:52;;;;;;;2.60;2.20;;;;;;;30.14;40.18;99451.06;106272;1252;60296;-73
2023/07/21 10:44:19;;;;;;;4.20;2.40;;;;;;;30.19;39.52;99449.45;109098;1251;72648;-76
2023/07/21 10:46:48;;;;;;;3.30;2.40;;;;;;;30.21;39.81;99446.73;108813;1251;68716;-76
2023/07/21 10:49:17;;;;;;;2.10;1.90;;;;;;;30.34;38.41;99445.79;109177;1251;71038;-76
2023/07/21 10:51:46;;;;;;;3.10;1.80;;;;;;;30.41;38.65;99441.16;108616;1253;61152;-76
2023/07/21 10:54:14;;;;;;;2.20;1.80;;;;;;;30.71;38.68;99440.94;106866;1253;60323;-71
2023/07/21 10:56:43;;;;;;;2.40;2.20;;;;;;;30.84;37.53;99440.65;107229;1253;73834;-72
2023/07/21 10:59:11;;;;;;;2.90;2.70;;;;;;;30.62;37.57;99437.41;107403;1253;68713;-76
2023/07/21 11:01:46;;;;;;;2.70;2.00;;;;;;;30.35;38.49;99436.63;108121;1253;71152;-77
2023/07/21 11:04:15;;;;;;;3.00;2.70;;;;;;;30.13;38.95;99442.05;108596;1253;60318;-76
2023/07/21 11:06:49;;;;;;;2.50;2.00;;;;;;;29.95;39.50;99442.73;108879;1251;58751;-75
2023/07/21 11:09:19;;;;;;;2.80;2.60;;;;;;;30.00;39.42;99441.45;108021;1252;72567;-77
2023/07/21 11:11:50;;;;;;;2.60;2.40;;;;;;;30.28;39.22;99435.95;106878;1257;68769;-76
2023/07/21 11:14:25;;;;;;;2.60;2.00;;;;;;;30.41;38.29;99436.52;107996;1254;71495;-75
2023/07/21 11:16:54;;;;;;;2.20;1.90;;;;;;;30.28;38.73;99439.55;108569;1253;59093;-75
2023/07/21 11:19:24;;;;;;;2.30;2.00;;;;;;;30.09;38.84;99437.83;108343;1252;60443;-76
2023/07/21 11:21:52;;;;;;;3.20;2.90;;;;;;;29.96;39.64;99442.55;107935;1251;72019;-75
2023/07/21 11:24:28;;;;;;;2.20;2.00;;;;;;;29.89;38.40;99437.34;108421;1251;68742;-75
2023/07/21 11:27:09;;;;;;;1.90;1.80;;;;;;;29.73;38.28;99443.34;107871;1254;71431;-76
2023/07/21 11:29:40;;;;;;;2.50;2.10;;;;;;;29.72;39.35;99440.83;106193;1253;61074;-76
2023/07/21 11:32:18;;;;;;;3.30;2.50;;;;;;;30.10;38.26;99443.60;106012;1258;60601;-76
2023/07/21 11:34:46;;;;;;;2.80;2.10;;;;;;;30.42;37.91;99433.46;106053;1253;73819;-77
2023/07/21 11:37:17;;;;;;;2.30;2.10;;;;;;;30.83;37.75;99428.12;105658;1257;71509;-77
2023/07/21 11:39:56;;;;;;;2.10;2.00;;;;;;;31.07;36.57;99426.44;105937;1257;72757;-76
2023/07/21 11:42:24;;;;;;;2.60;1.80;;;;;;;31.07;36.39;99427.51;106236;1254;60426;-74